Terminal Aerodrome Forecast
Issued by NWS Quad Cities IA IL

Home | Current Version | Previous Version | Text Only | Print | Product List | Glossary On
Versions: 1 2 3 4 5 6 7 8 9 10 11 12 13 14 15 16 17 18 19
000
FTUS43 KDVN 251600 AAD
TAFDBQ
TAF AMD
KDBQ 251639Z 2517/2612 20016G25KT P6SM VCSH BKN006 BKN035
     FM251900 18016G25KT P6SM SCT035
     FM260100 17010KT P6SM SCT040=

USA.gov is the U.S. government's official web portal to all federal, state and local government web resources and services.